createdAt,value
2023-01-11T00:00:28.258Z,4.47
2023-01-11T00:02:56.752Z,5.97
2023-01-11T00:05:23.453Z,4.68
2023-01-11T00:07:49.966Z,4.80
2023-01-11T00:10:16.741Z,3.97
2023-01-11T00:12:43.182Z,3.25
2023-01-11T00:15:10.400Z,3.83
2023-01-11T00:17:36.960Z,3.40
2023-01-11T00:20:03.818Z,4.00
2023-01-11T00:22:30.268Z,3.30
2023-01-11T00:24:56.772Z,1.48
2023-01-11T00:27:23.154Z,4.75
2023-01-11T00:29:49.567Z,3.20
2023-01-11T00:32:16.023Z,5.25
2023-01-11T00:34:42.531Z,1.30
2023-01-11T00:37:10.602Z,6.50
2023-01-11T00:39:37.034Z,2.80
2023-01-11T00:42:21.960Z,6.05
2023-01-11T00:45:07.000Z,1.30
2023-01-11T00:47:52.064Z,3.17
2023-01-11T00:50:18.623Z,5.65
2023-01-11T00:52:45.034Z,2.67
2023-01-11T00:55:11.433Z,3.28
2023-01-11T00:57:37.840Z,1.67
2023-01-11T01:00:06.022Z,2.50
2023-01-11T01:02:32.851Z,1.85
2023-01-11T01:04:59.703Z,0.68
2023-01-11T01:07:26.264Z,2.40
2023-01-11T01:09:52.677Z,5.10
2023-01-11T01:12:37.644Z,2.55
2023-01-11T01:15:04.469Z,1.23
2023-01-11T01:17:31.016Z,3.47
2023-01-11T01:19:57.424Z,0.80
2023-01-11T01:22:23.875Z,1.30
2023-01-11T01:24:50.400Z,3.80
2023-01-11T01:27:17.824Z,3.33
2023-01-11T01:29:44.465Z,2.13
2023-01-11T01:32:10.959Z,3.80
2023-01-11T01:34:37.582Z,3.25
2023-01-11T01:37:05.738Z,2.90
2023-01-11T01:39:32.331Z,3.03
2023-01-11T01:41:59.309Z,1.40
2023-01-11T01:44:52.744Z,4.15
2023-01-11T01:47:26.203Z,3.42
2023-01-11T01:49:53.080Z,0.65
2023-01-11T01:52:19.578Z,3.13
2023-01-11T01:54:49.244Z,0.77
2023-01-11T01:57:24.832Z,3.88
2023-01-11T01:59:52.794Z,0.75
2023-01-11T02:02:24.023Z,2.25
2023-01-11T02:04:52.945Z,2.05
2023-01-11T02:07:22.635Z,3.35
2023-01-11T02:10:04.650Z,4.45
2023-01-11T02:12:57.022Z,1.25
2023-01-11T02:15:23.980Z,6.82
2023-01-11T02:17:51.002Z,2.88
2023-01-11T02:20:23.648Z,2.13
2023-01-11T02:23:27.655Z,1.75
2023-01-11T02:26:20.339Z,0.93
2023-01-11T02:29:30.008Z,1.90
2023-01-11T02:32:17.795Z,0.95
2023-01-11T02:35:06.956Z,1.83
2023-01-11T02:38:05.204Z,2.53
2023-01-11T02:40:59.711Z,2.38
2023-01-11T02:43:50.755Z,1.15
2023-01-11T02:46:32.820Z,1.38
2023-01-11T02:49:09.357Z,1.85
2023-01-11T02:51:42.760Z,1.40
2023-01-11T02:54:11.606Z,3.60
2023-01-11T02:56:44.569Z,2.63
2023-01-11T02:59:15.542Z,1.40
2023-01-11T03:01:51.561Z,1.30
2023-01-11T03:04:25.657Z,2.67
2023-01-11T03:06:59.320Z,1.77
2023-01-11T03:09:35.041Z,4.32
2023-01-11T03:12:32.401Z,1.75
2023-01-11T03:15:17.436Z,0.70
2023-01-11T03:18:05.222Z,2.03
2023-01-11T03:20:47.269Z,1.55
2023-01-11T03:23:55.350Z,0.75
2023-01-11T03:26:49.634Z,3.00
2023-01-11T03:29:34.264Z,1.35
2023-01-11T03:32:25.953Z,4.50
2023-01-11T03:34:58.335Z,0.88
2023-01-11T03:37:35.949Z,1.35
2023-01-11T03:40:17.095Z,2.13
2023-01-11T03:43:05.553Z,2.58
2023-01-11T03:45:36.564Z,0.60
2023-01-11T03:48:06.863Z,1.05
2023-01-11T03:50:34.190Z,2.17
2023-01-11T03:53:05.434Z,2.47
2023-01-11T03:55:36.960Z,2.00
2023-01-11T03:58:03.597Z,2.47
2023-01-11T04:00:31.270Z,2.40
2023-01-11T04:03:00.172Z,1.63
2023-01-11T04:05:26.755Z,1.35
2023-01-11T04:07:54.243Z,4.90
2023-01-11T04:10:20.664Z,1.33
2023-01-11T04:12:48.253Z,3.83
2023-01-11T04:15:16.032Z,4.20
2023-01-11T04:17:42.988Z,2.95
2023-01-11T04:20:10.410Z,1.15
2023-01-11T04:22:36.884Z,1.05
2023-01-11T04:25:04.533Z,1.75
2023-01-11T04:27:31.023Z,5.28
2023-01-11T04:29:57.458Z,1.13
2023-01-11T04:32:24.525Z,2.75
2023-01-11T04:34:50.963Z,3.70
2023-01-11T04:37:17.472Z,1.40
2023-01-11T04:39:43.937Z,1.92
2023-01-11T04:42:18.370Z,2.15
2023-01-11T04:44:48.162Z,4.03
2023-01-11T04:47:16.210Z,3.67
2023-01-11T04:49:43.078Z,1.80
2023-01-11T04:52:11.479Z,1.95
2023-01-11T04:54:38.655Z,2.47
2023-01-11T04:57:06.033Z,2.25
2023-01-11T04:59:32.885Z,1.77
2023-01-11T05:01:59.336Z,2.63
2023-01-11T05:04:25.794Z,4.05
2023-01-11T05:06:52.549Z,3.88
2023-01-11T05:09:19.082Z,2.13
2023-01-11T05:11:45.933Z,3.00
2023-01-11T05:14:12.884Z,1.60
2023-01-11T05:16:39.496Z,1.70
2023-01-11T05:19:06.376Z,3.97
2023-01-11T05:21:35.805Z,1.20
2023-01-11T05:24:06.211Z,2.13
2023-01-11T05:26:35.096Z,2.90
2023-01-11T05:29:05.210Z,2.05
2023-01-11T05:31:33.151Z,1.77
2023-01-11T05:33:59.907Z,3.47
2023-01-11T05:36:28.163Z,1.10
2023-01-11T05:38:56.359Z,3.22
2023-01-11T05:41:25.701Z,3.60
2023-01-11T05:44:11.970Z,1.90
2023-01-11T05:46:40.479Z,3.72
2023-01-11T05:49:08.089Z,3.75
2023-01-11T05:51:35.245Z,3.53
2023-01-11T05:54:03.848Z,1.17
2023-01-11T05:56:30.747Z,2.13
2023-01-11T05:58:57.618Z,2.50
2023-01-11T06:01:25.766Z,3.17
2023-01-11T06:03:52.719Z,3.63
2023-01-11T06:06:20.359Z,3.25
2023-01-11T06:08:47.393Z,2.35
2023-01-11T06:11:15.330Z,1.65
2023-01-11T06:13:42.600Z,4.18
2023-01-11T06:16:12.311Z,1.20
2023-01-11T06:18:41.838Z,2.38
2023-01-11T06:21:09.547Z,1.98
2023-01-11T06:23:38.602Z,1.30
2023-01-11T06:26:11.113Z,4.38
2023-01-11T06:28:38.282Z,1.85
2023-01-11T06:31:06.549Z,2.25
2023-01-11T06:33:33.491Z,1.30
2023-01-11T06:36:03.942Z,1.05
2023-01-11T06:38:30.468Z,2.40
2023-01-11T06:41:00.536Z,1.73
2023-01-11T06:43:28.352Z,1.20
2023-01-11T06:45:55.615Z,1.13
2023-01-11T06:48:23.609Z,1.02
2023-01-11T06:50:52.259Z,1.77
2023-01-11T06:53:19.710Z,1.45
2023-01-11T06:55:50.532Z,1.83
2023-01-11T06:58:17.162Z,1.38
2023-01-11T07:00:43.838Z,0.73
2023-01-11T07:03:11.483Z,0.88
2023-01-11T07:05:38.093Z,0.80
2023-01-11T07:08:05.149Z,0.50
2023-01-11T07:10:31.771Z,2.35
2023-01-11T07:12:58.222Z,1.13
2023-01-11T07:15:24.909Z,0.85
2023-01-11T07:17:56.446Z,1.42
2023-01-11T07:20:24.627Z,2.50
2023-01-11T07:22:51.724Z,0.50
2023-01-11T07:25:18.720Z,0.98
2023-01-11T07:27:45.489Z,1.15
2023-01-11T07:30:12.436Z,1.55
2023-01-11T07:32:39.535Z,1.13
2023-01-11T07:35:07.176Z,1.20
2023-01-11T07:37:36.904Z,2.17
2023-01-11T07:40:03.750Z,2.42
2023-01-11T07:42:48.987Z,1.20
2023-01-11T07:45:15.727Z,1.40
2023-01-11T07:47:42.196Z,1.05
2023-01-11T07:50:09.191Z,0.40
2023-01-11T07:52:35.683Z,1.00
2023-01-11T07:55:02.816Z,1.15
2023-01-11T07:57:30.549Z,1.52
2023-01-11T07:59:57.197Z,0.63
2023-01-11T08:02:24.162Z,1.38
2023-01-11T08:04:50.856Z,0.95
2023-01-11T08:07:17.426Z,0.47
2023-01-11T08:09:43.992Z,2.03
2023-01-11T08:12:29.418Z,0.55
2023-01-11T08:14:55.878Z,0.85
2023-01-11T08:17:22.497Z,0.80
2023-01-11T08:19:49.040Z,0.50
2023-01-11T08:22:15.610Z,0.68
2023-01-11T08:24:42.244Z,0.65
2023-01-11T08:27:08.888Z,0.85
2023-01-11T08:29:35.570Z,0.90
2023-01-11T08:32:02.490Z,0.40
2023-01-11T08:34:29.167Z,0.82
2023-01-11T08:36:57.514Z,0.68
2023-01-11T08:39:24.621Z,0.80
2023-01-11T08:41:51.188Z,0.98
2023-01-11T08:44:29.113Z,0.32
2023-01-11T08:46:59.467Z,0.38
2023-01-11T08:49:25.955Z,2.65
2023-01-11T08:51:52.562Z,1.73
2023-01-11T08:54:19.021Z,2.05
2023-01-11T08:56:45.499Z,1.00
2023-01-11T08:59:12.156Z,0.93
2023-01-11T09:01:38.710Z,1.92
2023-01-11T09:04:19.160Z,0.52
2023-01-11T09:06:49.875Z,0.85
2023-01-11T09:09:17.025Z,0.60
2023-01-11T09:12:09.911Z,1.52
2023-01-11T09:14:36.516Z,0.45
2023-01-11T09:17:03.008Z,2.47
2023-01-11T09:19:29.527Z,0.80
2023-01-11T09:21:57.799Z,0.40
2023-01-11T09:24:24.309Z,0.50
2023-01-11T09:26:50.860Z,0.20
2023-01-11T09:29:17.961Z,1.38
2023-01-11T09:31:44.586Z,0.35
2023-01-11T09:34:12.712Z,0.73
2023-01-11T09:36:40.301Z,0.80
2023-01-11T09:39:11.779Z,0.47
2023-01-11T09:42:07.402Z,0.50
2023-01-11T09:44:36.728Z,0.30
2023-01-11T09:47:32.832Z,0.60
2023-01-11T09:50:04.552Z,0.73
2023-01-11T09:52:38.383Z,0.70
2023-01-11T09:55:06.105Z,0.98
2023-01-11T09:57:54.904Z,0.60
2023-01-11T10:00:37.367Z,0.80
2023-01-11T10:03:13.297Z,0.63
2023-01-11T10:06:09.124Z,0.50
2023-01-11T10:18:28.852Z,4.22
2023-01-11T10:19:24.837Z,8.15
2023-01-11T10:21:53.368Z,2.42
2023-01-11T10:24:30.674Z,1.48
2023-01-11T10:27:17.637Z,1.38
2023-01-11T10:29:47.839Z,1.50
2023-01-11T10:32:40.055Z,0.65
2023-01-11T10:35:33.965Z,0.60
2023-01-11T10:38:30.807Z,0.50
2023-01-11T10:41:15.632Z,0.65
2023-01-11T10:43:46.501Z,1.15
2023-01-11T10:46:26.510Z,0.47
2023-01-11T10:49:35.803Z,0.73
2023-01-11T10:52:38.971Z,0.73
2023-01-11T10:55:14.411Z,0.35
2023-01-11T10:58:03.574Z,1.23
2023-01-11T11:00:41.498Z,0.60
2023-01-11T11:03:10.748Z,1.33
2023-01-11T11:06:05.042Z,0.60
2023-01-11T11:08:49.594Z,0.77
2023-01-11T11:11:24.295Z,1.10
2023-01-11T11:13:56.838Z,0.77
2023-01-11T11:16:23.279Z,2.65
2023-01-11T11:18:58.435Z,0.60
2023-01-11T11:21:38.745Z,0.95
2023-01-11T11:24:13.517Z,0.65
2023-01-11T11:26:45.409Z,0.43
2023-01-11T11:29:22.808Z,0.50
2023-01-11T11:31:50.744Z,1.75
2023-01-11T11:34:20.712Z,0.73
2023-01-11T11:36:50.219Z,0.20
2023-01-11T11:39:22.063Z,1.60
2023-01-11T11:41:54.018Z,0.88
2023-01-11T11:44:24.382Z,0.52
2023-01-11T11:47:14.861Z,1.38
2023-01-11T11:49:42.209Z,0.45
2023-01-11T11:52:17.585Z,0.20
2023-01-11T11:54:56.917Z,1.13
2023-01-11T11:57:31.115Z,0.95
2023-01-11T12:00:09.026Z,0.88
2023-01-11T12:02:42.035Z,1.85
2023-01-11T12:05:10.565Z,0.98
2023-01-11T12:07:54.209Z,0.30
2023-01-11T12:10:24.179Z,0.10
2023-01-11T12:12:59.326Z,0.40
2023-01-11T12:15:30.739Z,0.25
2023-01-11T12:18:26.552Z,0.55
2023-01-11T12:20:53.821Z,0.15
2023-01-11T12:23:25.382Z,0.63
2023-01-11T12:26:21.345Z,0.40
2023-01-11T12:29:06.767Z,0.17
2023-01-11T12:31:39.025Z,0.75
2023-01-11T12:34:11.597Z,0.73
2023-01-11T12:37:04.180Z,0.77
2023-01-11T12:39:36.439Z,1.02
2023-01-11T12:42:40.595Z,0.55
2023-01-11T12:45:15.328Z,0.85
2023-01-11T12:47:50.527Z,1.02
2023-01-11T12:50:20.488Z,1.95
2023-01-11T12:53:24.691Z,1.55
2023-01-11T12:56:25.121Z,0.43
2023-01-11T12:59:07.093Z,0.50
2023-01-11T13:01:38.100Z,0.43
2023-01-11T13:04:12.461Z,0.60
2023-01-11T13:07:19.558Z,1.00
2023-01-11T13:10:25.406Z,0.50
2023-01-11T13:13:05.721Z,1.95
2023-01-11T13:16:00.987Z,0.22
2023-01-11T13:18:35.663Z,0.45
2023-01-11T13:21:19.351Z,1.45
2023-01-11T13:23:54.621Z,0.82
2023-01-11T13:29:00.646Z,2.20
2023-01-11T13:31:27.693Z,0.65
2023-01-11T13:34:01.070Z,0.20
2023-01-11T13:36:38.512Z,1.10
2023-01-11T13:39:28.490Z,0.68
2023-01-11T13:41:59.061Z,0.30
2023-01-11T13:44:36.382Z,0.20
2023-01-11T13:47:17.197Z,0.57
2023-01-11T13:50:10.688Z,0.20
2023-01-11T13:52:44.154Z,0.43
2023-01-11T13:55:27.047Z,0.40
2023-01-11T13:58:02.698Z,1.67
2023-01-11T14:00:47.574Z,0.47
2023-01-11T14:03:22.646Z,0.30
2023-01-11T14:09:28.420Z,0.47
2023-01-11T14:11:54.775Z,0.52
2023-01-11T14:14:39.663Z,0.20
2023-01-11T14:17:13.363Z,0.63
2023-01-11T14:20:01.528Z,0.95
2023-01-11T14:22:58.851Z,1.08
2023-01-11T14:25:38.758Z,0.40
2023-01-11T14:28:27.214Z,0.50
2023-01-11T14:31:15.329Z,0.63
2023-01-11T14:34:02.936Z,0.35
2023-01-11T14:39:52.284Z,0.43
2023-01-11T14:42:49.937Z,0.77
2023-01-11T14:45:41.313Z,0.98
2023-01-11T14:48:30.401Z,0.57
2023-01-11T14:51:34.322Z,2.38
2023-01-11T14:54:06.932Z,1.60
2023-01-11T14:56:42.230Z,1.05
2023-01-11T15:02:03.028Z,0.55
2023-01-11T15:04:35.361Z,0.73
2023-01-11T15:07:29.719Z,0.40
2023-01-11T15:09:58.387Z,1.75
2023-01-11T15:12:45.039Z,1.23
2023-01-11T15:15:11.405Z,0.77
2023-01-11T15:17:57.026Z,1.00
2023-01-11T15:20:27.802Z,2.03
2023-01-11T15:23:00.295Z,0.63
2023-01-11T15:25:29.707Z,1.30
2023-01-11T15:27:56.556Z,0.50
2023-01-11T15:30:29.212Z,1.27
2023-01-11T15:33:17.704Z,0.47
2023-01-11T15:35:56.447Z,1.67
2023-01-11T15:38:42.433Z,1.33
2023-01-11T15:41:35.760Z,2.20
2023-01-11T15:44:56.606Z,0.68
2023-01-11T15:47:40.909Z,1.00
2023-01-11T15:50:07.327Z,0.43
2023-01-11T15:53:12.365Z,0.77
2023-01-11T15:56:02.241Z,0.30
2023-01-11T15:58:50.253Z,0.50
2023-01-11T16:01:29.617Z,0.68
2023-01-11T16:04:28.507Z,0.93
2023-01-11T16:06:58.728Z,2.30
2023-01-11T16:09:50.219Z,1.45
2023-01-11T16:12:47.589Z,1.10
2023-01-11T16:15:38.205Z,0.90
2023-01-11T16:18:13.615Z,0.90
2023-01-11T16:20:44.020Z,2.00
2023-01-11T16:23:19.691Z,1.23
2023-01-11T16:25:49.850Z,1.35
2023-01-11T16:28:19.533Z,0.93
2023-01-11T16:30:46.927Z,1.67
2023-01-11T16:33:26.472Z,1.20
2023-01-11T16:36:11.418Z,0.98
2023-01-11T16:38:45.959Z,1.27
2023-01-11T16:41:15.172Z,1.00
2023-01-11T16:43:59.211Z,0.98
2023-01-11T16:46:46.950Z,2.22
2023-01-11T16:49:17.680Z,0.43
2023-01-11T16:51:45.356Z,1.52
2023-01-11T16:54:26.173Z,1.23
2023-01-11T16:56:53.872Z,1.00
2023-01-11T16:59:27.749Z,0.65
2023-01-11T17:01:57.043Z,0.52
2023-01-11T17:04:37.180Z,1.55
2023-01-11T17:07:20.105Z,1.27
2023-01-11T17:09:46.504Z,1.10
2023-01-11T17:12:21.907Z,0.93
2023-01-11T17:15:23.745Z,1.55
2023-01-11T17:17:50.773Z,1.40
2023-01-11T17:20:20.929Z,2.00
2023-01-11T17:22:50.674Z,1.38
2023-01-11T17:25:29.540Z,1.27
2023-01-11T17:28:02.770Z,1.73
2023-01-11T17:30:30.152Z,4.35
2023-01-11T17:32:59.530Z,2.75
2023-01-11T17:35:28.994Z,1.88
2023-01-11T17:37:58.969Z,2.60
2023-01-11T17:40:30.067Z,3.10
2023-01-11T17:43:38.905Z,2.08
2023-01-11T17:46:06.577Z,1.85
2023-01-11T17:48:33.943Z,3.45
2023-01-11T17:51:03.115Z,5.00
2023-01-11T17:53:37.464Z,5.60
2023-01-11T17:56:27.544Z,2.92
2023-01-11T17:59:15.820Z,3.75
2023-01-11T18:01:50.297Z,5.35
2023-01-11T18:04:19.930Z,8.38
2023-01-11T18:06:50.760Z,6.78
2023-01-11T18:09:24.547Z,5.65
2023-01-11T18:11:52.985Z,5.50
2023-01-11T18:14:29.925Z,6.97
2023-01-11T18:17:02.710Z,5.70
2023-01-11T18:19:34.666Z,5.57
2023-01-11T18:22:01.384Z,3.33
2023-01-11T18:24:33.854Z,4.10
2023-01-11T18:27:15.707Z,4.25
2023-01-11T18:29:47.434Z,3.70
2023-01-11T18:32:15.089Z,3.92
2023-01-11T18:34:44.116Z,3.67
2023-01-11T18:37:10.891Z,6.60
2023-01-11T18:39:37.733Z,8.02
2023-01-11T18:42:08.035Z,5.90
2023-01-11T18:44:39.048Z,3.10
2023-01-11T18:47:28.436Z,4.45
2023-01-11T18:49:55.177Z,3.70
2023-01-11T18:52:27.641Z,5.95
2023-01-11T18:54:55.748Z,5.00
2023-01-11T18:57:23.510Z,4.68
2023-01-11T18:59:52.346Z,5.25
2023-01-11T19:02:33.280Z,4.82
2023-01-11T19:04:59.774Z,5.78
2023-01-11T19:07:26.838Z,7.70
2023-01-11T19:09:54.917Z,8.77
2023-01-11T19:12:23.550Z,4.93
2023-01-11T19:14:49.978Z,4.55
2023-01-11T19:17:16.825Z,4.05
2023-01-11T19:19:43.480Z,6.28
2023-01-11T19:22:11.257Z,4.80
2023-01-11T19:24:38.035Z,4.78
2023-01-11T19:27:04.553Z,3.55
2023-01-11T19:29:32.599Z,5.07
2023-01-11T19:31:59.103Z,2.45
2023-01-11T19:34:25.565Z,4.75
2023-01-11T19:36:52.522Z,6.63
2023-01-11T19:39:19.001Z,4.88
2023-01-11T19:41:54.818Z,6.35
2023-01-11T19:44:22.102Z,8.70
2023-01-11T19:46:56.702Z,4.82
2023-01-11T19:49:27.842Z,4.07
2023-01-11T19:52:00.343Z,8.20
2023-01-11T19:54:28.375Z,4.72
2023-01-11T19:56:55.591Z,4.93
2023-01-11T19:59:22.117Z,8.30
2023-01-11T20:01:48.989Z,4.43
2023-01-11T20:04:17.001Z,5.30
2023-01-11T20:06:50.381Z,6.50
2023-01-11T20:09:18.824Z,5.75
2023-01-11T20:11:46.272Z,9.23
2023-01-11T20:14:12.719Z,8.45
2023-01-11T20:16:39.228Z,3.95
2023-01-11T20:19:05.663Z,6.55
2023-01-11T20:21:34.114Z,4.72
2023-01-11T20:24:01.818Z,4.28
2023-01-11T20:26:30.771Z,7.45
2023-01-11T20:28:59.075Z,7.80
2023-01-11T20:31:31.624Z,6.53
2023-01-11T20:34:00.005Z,4.70
2023-01-11T20:36:27.115Z,8.05
2023-01-11T20:38:55.071Z,6.38
2023-01-11T20:41:43.432Z,5.05
2023-01-11T20:44:10.528Z,5.65
2023-01-11T20:46:37.509Z,3.75
2023-01-11T20:49:05.412Z,5.43
2023-01-11T20:51:31.966Z,8.10
2023-01-11T20:53:58.494Z,5.90
2023-01-11T20:56:24.950Z,6.03
2023-01-11T20:58:52.106Z,5.57
2023-01-11T21:01:23.433Z,11.73
2023-01-11T21:03:49.875Z,6.80
2023-01-11T21:06:16.337Z,5.55
2023-01-11T21:08:42.938Z,8.05
2023-01-11T21:11:12.855Z,6.05
2023-01-11T21:13:40.277Z,4.93
2023-01-11T21:16:15.353Z,5.03
2023-01-11T21:18:45.998Z,3.72
2023-01-11T21:21:13.824Z,6.72
2023-01-11T21:23:40.595Z,6.60
2023-01-11T21:26:11.877Z,6.47
2023-01-11T21:28:39.409Z,7.10
2023-01-11T21:31:10.689Z,7.65
2023-01-11T21:33:39.178Z,8.30
2023-01-11T21:36:10.307Z,4.00
2023-01-11T21:38:37.268Z,6.65
2023-01-11T21:41:09.234Z,6.35
2023-01-11T21:43:36.467Z,6.68
2023-01-11T21:46:04.834Z,10.52
2023-01-11T21:48:31.933Z,7.63
2023-01-11T21:50:59.251Z,4.97
2023-01-11T21:53:32.530Z,7.18
2023-01-11T21:56:07.556Z,7.95
2023-01-11T21:58:35.478Z,4.85
2023-01-11T22:01:11.741Z,3.45
2023-01-11T22:03:38.295Z,5.97
2023-01-11T22:06:05.151Z,5.72
2023-01-11T22:08:35.089Z,4.60
2023-01-11T22:11:03.727Z,3.45
2023-01-11T22:13:31.186Z,13.30
2023-01-11T22:16:04.601Z,8.48
2023-01-11T22:18:33.647Z,5.65
2023-01-11T22:21:27.493Z,6.88
2023-01-11T22:29:17.254Z,14.95
2023-01-11T22:31:52.636Z,5.70
2023-01-11T22:34:19.471Z,4.97
2023-01-11T22:36:46.777Z,9.45
2023-01-11T22:39:14.834Z,9.80
2023-01-11T22:41:42.202Z,5.97
2023-01-11T22:44:09.380Z,5.88
2023-01-11T22:46:35.867Z,5.60
2023-01-11T22:49:04.099Z,3.92
2023-01-11T22:51:31.060Z,2.80
2023-01-11T22:53:58.291Z,6.22
2023-01-11T22:56:26.797Z,9.70
2023-01-11T22:58:53.971Z,4.72
2023-01-11T23:01:26.118Z,3.90
2023-01-11T23:03:54.014Z,4.55
2023-01-11T23:06:29.421Z,5.00
2023-01-11T23:11:48.436Z,4.85
2023-01-11T23:14:17.691Z,5.65
2023-01-11T23:16:45.417Z,4.65
2023-01-11T23:19:16.480Z,7.22
2023-01-11T23:21:44.927Z,7.60
2023-01-11T23:24:13.410Z,7.88
2023-01-11T23:26:40.087Z,3.83
2023-01-11T23:29:06.618Z,4.13
2023-01-11T23:31:34.275Z,5.95
2023-01-11T23:34:02.093Z,2.78
2023-01-11T23:36:31.642Z,4.55
2023-01-11T23:38:58.729Z,6.05
2023-01-11T23:41:43.890Z,3.17
2023-01-11T23:44:12.822Z,3.47
2023-01-11T23:46:58.762Z,4.22
2023-01-11T23:49:25.855Z,4.90
2023-01-11T23:51:56.170Z,4.75
2023-01-11T23:54:25.619Z,4.45
2023-01-11T23:56:52.062Z,4.43
2023-01-11T23:59:18.512Z,3.60
